Track Малиновский Степан

Time Latitude Longitude Accuracy (66% radius in meters) Altitude (meters) Speed (km/hour) Bearing (degrees) Battery (%) GPS flag
08:10:54 60.367807 29.554478 6 69.654042218795 0.27416494488716 0 96 1 delete
08:10:48 60.367814 29.554465 8 69.141686504012 0.16982251405716 0 96 1 delete
08:10:45 60.367806 29.554466 8 68.78716996516 0.17746286094189 0 96 1 delete
08:10:33 60.367784 29.554444 6 69.111204863195 0.32784631848335 0 96 1 delete
08:10:21 60.367766 29.554460 8 69.285534236221 0.39289128780365 0 96 1 delete
08:10:09 60.367791 29.554425 6 69.382799248981 0.77404934167862 0 96 1 delete
08:10:00 60.367783 29.554436 12 70.393793383605 0.19298125803471 0 96 1 delete
08:09:51 60.367769 29.554444 12 71.123071685562 0.22358630597591 0 96 1 delete
08:09:48 60.367782 29.554449 8 71.236517242978 0.29941922426224 0 96 1 delete
08:09:36 60.367803 29.554462 6 71.411430061536 0.16271686553955 0 96 1 delete
08:09:24 60.367820 29.554469 8 70.954249658278 0.43418031930923 0 96 1 delete
08:09:12 60.367806 29.554463 6 70.333718148833 0.040549222379923 0 96 1 delete
08:09:00 60.367802 29.554456 16 68.415518058829 0.28086993098259 0 96 1 delete
08:08:51 60.367800 29.554454 8 67.140471177274 0.35988801717758 0 96 1 delete
08:08:39 60.367811 29.554463 6 66.742870272885 0.26241779327393 0 96 1 delete
08:08:36 60.367820 29.554463 6 66.749937762322 0.48018696904182 0 96 1 delete
08:08:27 60.367796 29.554456 6 66.700103866078 0.43088316917419 0 96 1 delete
08:08:15 60.367784 29.554457 4 67.3501187874 0.37852594256401 0 96 1 delete
08:08:06 60.367786 29.554465 6 68.143171928153 0.28534612059593 0 96 1 delete
08:07:54 60.367771 29.554484 4 68.728035903966 0.25376144051552 0 96 1 delete
08:07:45 60.367769 29.554474 6 70.003292051677 0.14427335560322 0 96 1 delete
08:07:42 60.367777 29.554475 6 70.036489697638 0.43409505486488 0 96 1 delete
08:07:30 60.367798 29.554475 6 70.575995024011 0.18827353417873 0 96 1 delete
08:07:18 60.367825 29.554450 6 71.560070468579 0.52548390626907 0 96 1 delete
08:07:09 60.367793 29.554448 8 71.504820039235 0.32084143161774 0 96 1 delete
08:06:57 60.367781 29.554458 6 71.22347518866 0.12587389349937 0 96 1 delete
08:06:45 60.367807 29.554468 4 71.714989092873 0.21615871787071 0 96 1 delete
08:06:36 60.367801 29.554474 4 71.212497567433 0.13188274204731 0 96 1 delete
08:06:24 60.367795 29.554471 6 70.783061025168 0.057407610118389 0 96 1 delete
08:06:12 60.367777 29.554454 8 70.698781769446 0.018925683572888 0 96 1 delete
08:06:00 60.367792 29.554468 4 70.786335671485 0.029710093513131 0 96 1 delete
08:05:51 60.367807 29.554474 4 70.805850916272 0.014242260716856 0 96 1 delete
08:05:39 60.367823 29.554487 4 70.744114467468 0.013404042460024 0 96 1 delete
08:05:36 60.367818 29.554488 6 70.703851849469 0.004472563508898 0 96 1 delete
08:05:27 60.367783 29.554476 6 70.536096426116 0.0052644037641585 0 96 1 delete
08:05:15 60.367748 29.554443 6 70.246780496036 0.015186661854386 0 96 1 delete
08:05:03 60.367776 29.554453 4 70.255050645679 0.040699694305658 0 96 1 delete
08:04:54 60.367788 29.554445 4 70.156564556538 0.038631025701761 0 96 1 delete
08:04:42 60.367792 29.554432 4 70.091081375696 0.0044551533646882 0 96 1 delete
08:04:30 60.367794 29.554417 4 70.081116628342 0.014208756387234 0 96 1 delete
08:04:18 60.367772 29.554418 4 70.085599210905 0.031650699675083 0 96 1 delete
08:04:12 60.367777 29.554423 6 70.079347877321 0.020343972370028 0 96 1 delete
08:04:06 60.367829 29.554450 4 70.149807591474 0.027150478214025 0 96 1 delete
08:03:57 60.367838 29.554467 4 70.168731744468 0.097796365618706 0 96 1 delete
08:03:54 60.367829 29.554472 4 70.015988546028 0.022134503349662 0 96 1 delete
08:03:45 60.367791 29.554472 6 69.875020189378 0.047445073723793 0 96 1 delete
08:03:33 60.367786 29.554483 6 69.799372862984 0.0196428950876 0 96 1 delete
08:03:24 60.367790 29.554513 4 69.787320159997 0.0077730999328196 0 96 1 delete
08:03:21 60.367779 29.554519 4 69.81483488307 0.021108204498887 0 96 1 delete
08:03:12 60.367807 29.554561 4 69.912109183887 0.0045823496766388 0 96 1 delete